createdAt,value
2023-01-23T00:00:36.321Z,1.47
2023-01-23T00:01:38.964Z,1.50
2023-01-23T00:02:41.454Z,1.61
2023-01-23T00:03:43.636Z,2.05
2023-01-23T00:04:45.895Z,1.73
2023-01-23T00:05:48.423Z,1.42
2023-01-23T00:06:51.299Z,1.50
2023-01-23T00:07:53.567Z,1.62
2023-01-23T00:08:56.027Z,1.46
2023-01-23T00:09:58.375Z,1.44
2023-01-23T00:11:00.839Z,1.39
2023-01-23T00:12:03.322Z,1.51
2023-01-23T00:13:05.770Z,1.50
2023-01-23T00:14:07.944Z,1.62
2023-01-23T00:15:10.383Z,1.69
2023-01-23T00:16:12.920Z,1.38
2023-01-23T00:17:15.534Z,1.66
2023-01-23T00:18:17.749Z,1.55
2023-01-23T00:19:20.130Z,1.75
2023-01-23T00:20:22.501Z,1.69
2023-01-23T00:21:24.724Z,1.81
2023-01-23T00:22:27.089Z,1.69
2023-01-23T00:23:29.591Z,1.35
2023-01-23T00:24:31.992Z,1.52
2023-01-23T00:25:34.191Z,1.47
2023-01-23T00:26:36.881Z,1.58
2023-01-23T00:27:39.345Z,1.84
2023-01-23T00:28:41.804Z,1.69
2023-01-23T00:29:44.085Z,1.57
2023-01-23T00:30:46.378Z,1.78
2023-01-23T00:31:48.890Z,1.57
2023-01-23T00:32:51.533Z,1.41
2023-01-23T00:33:54.027Z,1.60
2023-01-23T00:34:56.207Z,1.67
2023-01-23T00:35:58.414Z,1.86
2023-01-23T00:37:00.639Z,1.63
2023-01-23T00:38:03.106Z,1.44
2023-01-23T00:39:05.383Z,1.34
2023-01-23T00:40:07.632Z,1.63
2023-01-23T00:41:09.851Z,1.76
2023-01-23T00:42:12.053Z,1.72
2023-01-23T00:43:14.381Z,1.86
2023-01-23T00:44:16.798Z,1.77
2023-01-23T00:45:19.220Z,1.75
2023-01-23T00:46:21.663Z,1.59
2023-01-23T00:47:23.960Z,1.68
2023-01-23T00:48:26.573Z,1.77
2023-01-23T00:49:29.202Z,1.52
2023-01-23T00:50:31.589Z,1.60
2023-01-23T00:51:34.122Z,1.86
2023-01-23T00:52:36.560Z,1.78
2023-01-23T00:53:39.002Z,1.66
2023-01-23T00:54:41.432Z,1.62
2023-01-23T00:55:43.679Z,1.78
2023-01-23T00:56:45.936Z,1.70
2023-01-23T00:57:48.158Z,1.72
2023-01-23T00:58:50.577Z,2.02
2023-01-23T00:59:52.986Z,1.73
2023-01-23T01:00:55.198Z,2.40
2023-01-23T01:01:57.440Z,1.93
2023-01-23T01:02:59.814Z,1.71
2023-01-23T01:04:02.097Z,1.67
2023-01-23T01:05:04.300Z,1.55
2023-01-23T01:06:06.638Z,1.28
2023-01-23T01:07:08.876Z,1.51
2023-01-23T01:08:11.157Z,1.92
2023-01-23T01:09:13.505Z,1.67
2023-01-23T01:10:15.686Z,1.48
2023-01-23T01:11:17.971Z,1.35
2023-01-23T01:12:20.478Z,1.74
2023-01-23T01:13:22.762Z,1.56
2023-01-23T01:14:25.082Z,1.61
2023-01-23T01:15:27.312Z,1.62
2023-01-23T01:16:29.645Z,1.52
2023-01-23T01:17:32.160Z,1.65
2023-01-23T01:18:34.655Z,1.53
2023-01-23T01:19:37.283Z,1.64
2023-01-23T01:20:39.735Z,1.87
2023-01-23T01:21:42.193Z,1.85
2023-01-23T01:22:44.400Z,1.48
2023-01-23T01:23:46.710Z,1.78
2023-01-23T01:24:49.278Z,1.48
2023-01-23T01:25:51.550Z,1.48
2023-01-23T01:26:54.268Z,1.61
2023-01-23T01:27:56.485Z,1.71
2023-01-23T01:28:58.683Z,1.33
2023-01-23T01:30:01.110Z,1.59
2023-01-23T01:31:03.535Z,1.81
2023-01-23T01:32:05.817Z,1.60
2023-01-23T01:33:08.034Z,1.58
2023-01-23T01:34:10.284Z,1.84
2023-01-23T01:35:12.564Z,1.63
2023-01-23T01:36:14.732Z,1.61
2023-01-23T01:37:16.977Z,1.30
2023-01-23T01:38:19.638Z,1.37
2023-01-23T01:39:22.143Z,1.50
2023-01-23T01:40:24.747Z,1.75
2023-01-23T01:41:27.274Z,1.44
2023-01-23T01:42:29.700Z,1.35
2023-01-23T01:43:32.107Z,1.66
2023-01-23T01:44:34.680Z,1.61
2023-01-23T01:45:37.309Z,1.67
2023-01-23T01:46:39.566Z,1.58
2023-01-23T01:47:42.134Z,1.59
2023-01-23T01:48:44.414Z,1.15
2023-01-23T01:49:46.646Z,1.37
2023-01-23T01:50:49.152Z,1.57
2023-01-23T01:51:51.657Z,1.88
2023-01-23T01:52:54.046Z,1.71
2023-01-23T01:53:56.478Z,1.61
2023-01-23T01:54:58.909Z,1.48
2023-01-23T01:56:01.478Z,1.54
2023-01-23T01:57:03.965Z,1.37
2023-01-23T01:58:06.361Z,1.35
2023-01-23T01:59:08.870Z,1.46
2023-01-23T02:00:11.097Z,1.51
2023-01-23T02:01:13.595Z,1.65
2023-01-23T02:02:16.176Z,1.45
2023-01-23T02:03:18.659Z,1.30
2023-01-23T02:04:21.132Z,1.33
2023-01-23T02:05:23.603Z,1.52
2023-01-23T02:06:26.129Z,1.25
2023-01-23T02:07:28.616Z,1.44
2023-01-23T02:08:30.949Z,1.45
2023-01-23T02:09:33.130Z,1.31
2023-01-23T02:10:35.573Z,1.39
2023-01-23T02:11:37.873Z,1.41
2023-01-23T02:12:40.328Z,1.32
2023-01-23T02:13:42.565Z,1.32
2023-01-23T02:14:44.794Z,1.70
2023-01-23T02:15:47.037Z,1.54
2023-01-23T02:16:49.419Z,1.57
2023-01-23T02:17:51.795Z,1.52
2023-01-23T02:18:54.373Z,1.38
2023-01-23T02:19:56.763Z,1.45
2023-01-23T02:20:59.175Z,1.52
2023-01-23T02:22:01.588Z,1.52
2023-01-23T02:23:03.771Z,1.82
2023-01-23T02:24:06.037Z,1.52
2023-01-23T02:25:08.250Z,1.59
2023-01-23T02:26:10.520Z,1.59
2023-01-23T02:27:12.903Z,1.78
2023-01-23T02:28:15.134Z,1.21
2023-01-23T02:29:17.337Z,1.13
2023-01-23T02:30:19.894Z,1.33
2023-01-23T02:31:22.551Z,1.22
2023-01-23T02:32:25.195Z,1.28
2023-01-23T02:33:27.391Z,1.19
2023-01-23T02:34:29.616Z,1.28
2023-01-23T02:35:31.924Z,1.19
2023-01-23T02:36:34.170Z,1.24
2023-01-23T02:37:36.428Z,1.19
2023-01-23T02:38:38.691Z,1.25
2023-01-23T02:39:41.139Z,1.13
2023-01-23T02:40:43.594Z,1.51
2023-01-23T02:41:46.090Z,1.22
2023-01-23T02:42:48.382Z,1.02
2023-01-23T02:43:50.834Z,1.27
2023-01-23T02:44:53.434Z,1.13
2023-01-23T02:45:55.952Z,1.15
2023-01-23T02:46:58.361Z,1.16
2023-01-23T02:48:01.298Z,1.00
2023-01-23T02:49:03.790Z,1.22
2023-01-23T02:50:06.188Z,1.15
2023-01-23T02:51:08.671Z,1.12
2023-01-23T02:52:11.229Z,1.17
2023-01-23T02:53:13.759Z,1.11
2023-01-23T02:54:16.226Z,1.24
2023-01-23T02:55:18.651Z,1.15
2023-01-23T02:56:21.126Z,1.04
2023-01-23T02:57:23.565Z,1.19
2023-01-23T02:58:26.121Z,1.23
2023-01-23T02:59:28.526Z,1.16
2023-01-23T03:00:31.031Z,1.19
2023-01-23T03:01:33.454Z,1.20
2023-01-23T03:02:35.960Z,1.53
2023-01-23T03:03:38.434Z,1.32
2023-01-23T03:04:40.701Z,1.48
2023-01-23T03:05:42.948Z,1.11
2023-01-23T03:06:45.150Z,1.60
2023-01-23T03:07:47.529Z,1.18
2023-01-23T03:08:49.835Z,1.02
2023-01-23T03:09:52.313Z,1.07
2023-01-23T03:10:54.719Z,1.11
2023-01-23T03:11:57.150Z,1.07
2023-01-23T03:13:00.597Z,1.18
2023-01-23T03:14:02.861Z,1.06
2023-01-23T03:15:05.102Z,0.86
2023-01-23T03:16:07.433Z,1.30
2023-01-23T03:17:09.673Z,1.29
2023-01-23T03:18:11.898Z,1.28
2023-01-23T03:19:14.073Z,1.16
2023-01-23T03:20:16.294Z,1.13
2023-01-23T03:21:18.517Z,1.26
2023-01-23T03:22:20.688Z,1.32
2023-01-23T03:23:22.924Z,1.22
2023-01-23T03:24:25.232Z,1.17
2023-01-23T03:25:27.452Z,1.59
2023-01-23T03:26:30.025Z,1.38
2023-01-23T03:27:32.472Z,1.31
2023-01-23T03:28:34.956Z,1.28
2023-01-23T03:29:37.587Z,1.34
2023-01-23T03:30:40.381Z,1.29
2023-01-23T03:31:43.053Z,1.31
2023-01-23T03:32:45.547Z,1.18
2023-01-23T03:33:47.946Z,1.36
2023-01-23T03:34:50.526Z,1.22
2023-01-23T03:35:53.024Z,1.13
2023-01-23T03:36:55.480Z,1.37
2023-01-23T03:37:57.894Z,1.35
2023-01-23T03:39:00.401Z,1.25
2023-01-23T03:40:02.995Z,1.46
2023-01-23T03:41:05.431Z,1.56
2023-01-23T03:42:07.962Z,1.49
2023-01-23T03:43:10.415Z,1.30
2023-01-23T03:44:12.810Z,1.26
2023-01-23T03:45:15.459Z,1.47
2023-01-23T03:46:17.860Z,1.27
2023-01-23T03:47:20.314Z,1.29
2023-01-23T03:48:22.815Z,1.26
2023-01-23T03:49:24.984Z,1.16
2023-01-23T03:50:27.239Z,1.42
2023-01-23T03:51:29.446Z,1.54
2023-01-23T03:52:32.024Z,1.22
2023-01-23T03:53:34.292Z,1.28
2023-01-23T03:54:36.765Z,1.48
2023-01-23T03:55:39.405Z,1.79
2023-01-23T03:56:42.012Z,1.33
2023-01-23T03:57:44.590Z,1.42
2023-01-23T03:58:47.016Z,1.35
2023-01-23T03:59:49.517Z,1.27
2023-01-23T04:00:52.229Z,1.44
2023-01-23T04:01:54.727Z,1.48
2023-01-23T04:02:57.013Z,1.37
2023-01-23T04:03:59.273Z,1.49
2023-01-23T04:05:01.483Z,1.47
2023-01-23T04:06:03.958Z,1.65
2023-01-23T04:07:06.160Z,1.21
2023-01-23T04:08:08.376Z,1.47
2023-01-23T04:09:10.561Z,1.45
2023-01-23T04:10:13.387Z,1.62
2023-01-23T04:11:15.733Z,1.50
2023-01-23T04:12:18.316Z,1.35
2023-01-23T04:13:20.514Z,1.60
2023-01-23T04:14:22.853Z,1.60
2023-01-23T04:15:25.263Z,1.55
2023-01-23T04:16:27.857Z,1.50
2023-01-23T04:17:30.551Z,1.59
2023-01-23T04:18:33.037Z,1.75
2023-01-23T04:19:35.629Z,1.43
2023-01-23T04:20:38.053Z,1.28
2023-01-23T04:21:40.704Z,1.42
2023-01-23T04:22:42.990Z,1.45
2023-01-23T04:23:45.468Z,1.56
2023-01-23T04:24:47.652Z,1.38
2023-01-23T04:25:49.855Z,1.29
2023-01-23T04:26:52.164Z,1.31
2023-01-23T04:27:54.598Z,1.43
2023-01-23T04:28:57.131Z,1.62
2023-01-23T04:29:59.608Z,1.32
2023-01-23T04:31:02.132Z,1.37
2023-01-23T04:32:04.753Z,1.32
2023-01-23T04:33:07.346Z,1.54
2023-01-23T04:34:09.850Z,1.28
2023-01-23T04:35:12.427Z,1.26
2023-01-23T04:36:14.894Z,1.37
2023-01-23T04:37:17.509Z,1.22
2023-01-23T04:38:19.998Z,1.43
2023-01-23T04:39:22.450Z,1.38
2023-01-23T04:40:24.868Z,1.39
2023-01-23T04:41:27.355Z,1.32
2023-01-23T04:42:29.857Z,1.35
2023-01-23T04:43:32.328Z,1.45
2023-01-23T04:44:34.544Z,1.45
2023-01-23T04:45:37.299Z,1.22
2023-01-23T04:46:39.740Z,1.29
2023-01-23T04:47:42.423Z,1.25
2023-01-23T04:48:46.380Z,1.55
2023-01-23T04:49:48.926Z,1.59
2023-01-23T04:50:51.467Z,1.27
2023-01-23T04:51:53.949Z,1.39
2023-01-23T04:52:56.605Z,1.66
2023-01-23T04:53:59.196Z,1.49
2023-01-23T04:55:01.585Z,1.52
2023-01-23T04:56:04.153Z,1.39
2023-01-23T04:57:06.729Z,1.52
2023-01-23T04:58:09.098Z,1.21
2023-01-23T04:59:11.596Z,1.58
2023-01-23T05:00:14.043Z,1.59
2023-01-23T05:01:16.547Z,1.46
2023-01-23T05:02:18.912Z,1.58
2023-01-23T05:03:21.156Z,1.76
2023-01-23T05:04:23.346Z,1.64
2023-01-23T05:05:25.579Z,1.54
2023-01-23T05:06:27.897Z,1.47
2023-01-23T05:07:30.138Z,1.56
2023-01-23T05:08:32.951Z,1.56
2023-01-23T05:09:35.199Z,1.52
2023-01-23T05:10:37.364Z,1.65
2023-01-23T05:11:39.669Z,1.76
2023-01-23T05:12:41.943Z,1.66
2023-01-23T05:13:44.613Z,2.11
2023-01-23T05:14:47.003Z,1.90
2023-01-23T05:15:49.548Z,1.80
2023-01-23T05:16:52.001Z,1.82
2023-01-23T05:17:54.525Z,1.61
2023-01-23T05:18:57.144Z,1.70
2023-01-23T05:19:59.682Z,1.71
2023-01-23T05:21:02.158Z,1.65
2023-01-23T05:22:04.591Z,1.76
2023-01-23T05:23:07.048Z,1.89
2023-01-23T05:24:09.519Z,1.72
2023-01-23T05:25:11.961Z,1.64
2023-01-23T05:26:14.431Z,1.57
2023-01-23T05:27:16.893Z,1.57
2023-01-23T05:28:19.129Z,1.72
2023-01-23T05:29:22.090Z,1.75
2023-01-23T05:30:32.855Z,1.78
2023-01-23T05:31:36.312Z,0.98
2023-01-23T05:32:39.653Z,1.75
2023-01-23T05:33:42.396Z,1.68
2023-01-23T05:34:45.445Z,1.67
2023-01-23T05:35:48.748Z,1.84
2023-01-23T05:36:51.682Z,1.56
2023-01-23T05:37:55.087Z,1.61
2023-01-23T05:38:58.592Z,1.57
2023-01-23T05:40:01.276Z,1.40
2023-01-23T05:41:04.038Z,1.56
2023-01-23T05:42:06.915Z,1.70
2023-01-23T05:43:10.003Z,1.48
2023-01-23T05:44:13.253Z,1.55
2023-01-23T05:45:16.170Z,1.28
2023-01-23T05:46:19.184Z,1.27
2023-01-23T05:47:22.285Z,1.53
2023-01-23T05:48:25.398Z,1.48
2023-01-23T05:49:28.266Z,1.74
2023-01-23T05:50:33.713Z,1.98
2023-01-23T05:51:36.157Z,1.99
2023-01-23T05:52:39.076Z,1.70
2023-01-23T05:53:42.028Z,1.83
2023-01-23T05:54:44.787Z,1.66
2023-01-23T05:55:47.484Z,2.12
2023-01-23T05:56:50.131Z,1.78
2023-01-23T05:57:52.907Z,1.55
2023-01-23T05:58:55.976Z,1.79
2023-01-23T05:59:59.099Z,1.34
2023-01-23T06:01:02.152Z,1.63
2023-01-23T06:02:05.326Z,1.48
2023-01-23T06:03:08.298Z,1.48
2023-01-23T06:04:11.008Z,1.38
2023-01-23T06:05:14.045Z,1.75
2023-01-23T06:06:17.173Z,1.75
2023-01-23T06:07:20.213Z,1.38
2023-01-23T06:08:22.876Z,1.52
2023-01-23T06:09:25.434Z,1.27
2023-01-23T06:10:29.001Z,1.48
2023-01-23T06:11:31.891Z,1.83
2023-01-23T06:12:34.779Z,1.81
2023-01-23T06:13:37.963Z,1.68
2023-01-23T06:14:40.945Z,1.78
2023-01-23T06:15:43.732Z,1.62
2023-01-23T06:16:46.587Z,1.34
2023-01-23T06:17:50.150Z,1.51
2023-01-23T06:18:52.952Z,1.51
2023-01-23T06:19:55.920Z,1.63
2023-01-23T06:20:58.485Z,1.49
2023-01-23T06:22:01.274Z,1.31
2023-01-23T06:23:04.350Z,1.41
2023-01-23T06:24:06.911Z,1.31
2023-01-23T06:25:09.863Z,1.79
2023-01-23T06:26:12.680Z,1.76
2023-01-23T06:27:15.227Z,1.57
2023-01-23T06:28:17.780Z,1.69
2023-01-23T06:29:20.568Z,1.92
2023-01-23T06:30:23.839Z,1.53
2023-01-23T06:31:26.860Z,1.74
2023-01-23T06:32:29.551Z,1.65
2023-01-23T06:33:32.691Z,1.94
2023-01-23T06:34:35.344Z,1.93
2023-01-23T06:35:38.732Z,1.92
2023-01-23T06:36:41.804Z,1.74
2023-01-23T06:37:45.298Z,1.58
2023-01-23T06:38:48.184Z,1.78
2023-01-23T06:39:51.340Z,1.80
2023-01-23T06:40:54.532Z,1.99
2023-01-23T06:41:57.669Z,1.73
2023-01-23T06:43:00.608Z,1.98
2023-01-23T06:44:04.066Z,1.65
2023-01-23T06:45:06.959Z,1.81
2023-01-23T06:46:10.216Z,1.54
2023-01-23T06:47:13.414Z,1.74
2023-01-23T06:48:16.311Z,1.93
2023-01-23T06:49:19.790Z,1.82
2023-01-23T06:50:23.145Z,1.76
2023-01-23T06:51:26.001Z,1.64
2023-01-23T06:52:28.836Z,1.59
2023-01-23T06:53:31.816Z,1.37
2023-01-23T06:54:34.584Z,1.95
2023-01-23T06:55:37.778Z,1.38
2023-01-23T06:56:40.335Z,1.60
2023-01-23T06:57:42.755Z,1.64
2023-01-23T06:58:45.268Z,1.63
2023-01-23T06:59:47.867Z,1.37
2023-01-23T07:00:50.239Z,1.38
2023-01-23T07:01:52.516Z,1.52
2023-01-23T07:02:54.895Z,1.76
2023-01-23T07:03:57.396Z,2.14
2023-01-23T07:05:00.003Z,1.90
2023-01-23T07:06:02.464Z,1.87
2023-01-23T07:07:04.963Z,1.59
2023-01-23T07:08:07.196Z,1.89
2023-01-23T07:09:09.365Z,1.94
2023-01-23T07:10:13.343Z,1.75
2023-01-23T07:11:15.755Z,1.87
2023-01-23T07:12:18.224Z,1.80
2023-01-23T07:13:20.741Z,1.75
2023-01-23T07:14:23.267Z,1.56
2023-01-23T07:15:25.888Z,1.63
2023-01-23T07:16:28.197Z,1.71
2023-01-23T07:17:30.444Z,1.70
2023-01-23T07:18:32.795Z,1.65
2023-01-23T07:19:35.197Z,1.74
2023-01-23T07:20:37.448Z,1.66
2023-01-23T07:21:39.712Z,1.54
2023-01-23T07:22:42.281Z,1.65
2023-01-23T07:23:44.725Z,1.76
2023-01-23T07:24:47.227Z,1.47
2023-01-23T07:25:49.586Z,1.77
2023-01-23T07:26:52.444Z,1.99
2023-01-23T07:27:54.644Z,1.72
2023-01-23T07:28:57.085Z,2.17
2023-01-23T07:29:59.278Z,2.06
2023-01-23T07:31:01.796Z,1.82
2023-01-23T07:32:04.040Z,1.72
2023-01-23T07:33:06.261Z,1.64
2023-01-23T07:34:08.515Z,1.62
2023-01-23T07:35:10.717Z,1.78
2023-01-23T07:36:13.079Z,1.57
2023-01-23T07:37:15.582Z,1.76
2023-01-23T07:38:18.018Z,1.73
2023-01-23T07:39:20.528Z,1.39
2023-01-23T07:40:23.011Z,1.67
2023-01-23T07:41:25.818Z,1.79
2023-01-23T07:42:28.132Z,1.78
2023-01-23T07:43:30.399Z,1.67
2023-01-23T07:44:32.644Z,1.92
2023-01-23T07:45:35.169Z,1.42
2023-01-23T07:46:37.853Z,1.56
2023-01-23T07:47:40.382Z,1.48
2023-01-23T07:48:42.814Z,1.69
2023-01-23T07:49:45.255Z,1.82
2023-01-23T07:50:47.704Z,1.54
2023-01-23T07:51:50.321Z,1.75
2023-01-23T07:52:52.631Z,1.28
2023-01-23T07:53:55.087Z,1.27
2023-01-23T07:54:57.543Z,1.27
2023-01-23T07:55:59.712Z,1.09
2023-01-23T07:57:02.491Z,1.22
2023-01-23T07:58:05.009Z,1.28
2023-01-23T07:59:07.504Z,1.12
2023-01-23T08:00:09.958Z,1.35
2023-01-23T08:01:12.521Z,1.59
2023-01-23T08:02:15.346Z,1.55
2023-01-23T08:03:17.777Z,1.35
2023-01-23T08:04:20.250Z,1.30
2023-01-23T08:05:22.734Z,1.27
2023-01-23T08:06:25.135Z,1.13
2023-01-23T08:07:29.511Z,1.28
2023-01-23T08:08:31.754Z,1.43
2023-01-23T08:09:34.049Z,1.41
2023-01-23T08:10:36.318Z,1.48
2023-01-23T08:11:38.507Z,1.51
2023-01-23T08:12:41.167Z,1.47
2023-01-23T08:13:43.649Z,1.57
2023-01-23T08:14:46.126Z,1.61
2023-01-23T08:15:48.583Z,1.54
2023-01-23T08:16:51.181Z,2.08
2023-01-23T08:17:53.387Z,1.82
2023-01-23T08:18:55.930Z,1.56
2023-01-23T08:19:58.210Z,1.62
2023-01-23T08:21:00.422Z,1.65
2023-01-23T08:22:02.724Z,1.99
2023-01-23T08:23:05.028Z,2.11
2023-01-23T08:24:07.258Z,1.82
2023-01-23T08:25:09.485Z,2.12
2023-01-23T08:26:11.706Z,1.45
2023-01-23T08:27:16.985Z,1.56
2023-01-23T08:28:19.288Z,1.85
2023-01-23T08:29:21.537Z,1.71
2023-01-23T08:30:23.820Z,1.58
2023-01-23T08:31:26.235Z,1.90
2023-01-23T08:32:28.873Z,1.55
2023-01-23T08:33:31.788Z,1.62
2023-01-23T08:34:34.040Z,1.78
2023-01-23T08:35:36.338Z,2.04
2023-01-23T08:36:38.540Z,2.44
2023-01-23T08:37:40.768Z,1.91
2023-01-23T08:38:43.178Z,2.12
2023-01-23T08:39:45.377Z,2.36
2023-01-23T08:40:47.867Z,2.12
2023-01-23T08:41:50.481Z,2.19
2023-01-23T08:42:52.956Z,2.40
2023-01-23T08:43:55.394Z,2.59
2023-01-23T08:44:57.834Z,1.85
2023-01-23T08:46:00.157Z,1.79
2023-01-23T08:47:02.498Z,1.96
2023-01-23T08:48:05.316Z,3.21
2023-01-23T08:49:08.829Z,2.94
2023-01-23T08:50:11.927Z,2.84
2023-01-23T08:51:14.275Z,2.38
2023-01-23T08:52:16.847Z,2.06
2023-01-23T08:53:19.360Z,1.62
2023-01-23T08:54:21.839Z,2.18
2023-01-23T08:55:24.054Z,2.56
2023-01-23T08:56:26.480Z,1.90
2023-01-23T08:57:28.985Z,2.23
2023-01-23T08:58:31.449Z,2.31
2023-01-23T08:59:34.008Z,2.27
2023-01-23T09:00:36.469Z,2.72
2023-01-23T09:01:38.678Z,3.13
2023-01-23T09:02:40.974Z,2.79
2023-01-23T09:03:43.235Z,1.84
2023-01-23T09:04:45.916Z,1.59
2023-01-23T09:05:48.388Z,1.93
2023-01-23T09:06:50.636Z,2.25
2023-01-23T09:07:52.843Z,1.40
2023-01-23T09:08:55.104Z,1.73
2023-01-23T09:09:57.716Z,1.69
2023-01-23T09:11:00.186Z,1.62
2023-01-23T09:12:02.430Z,1.67
2023-01-23T09:13:04.665Z,1.91
2023-01-23T09:14:06.886Z,1.52
2023-01-23T09:15:09.237Z,1.37
2023-01-23T09:16:11.483Z,1.68
2023-01-23T09:17:13.748Z,1.51
2023-01-23T09:18:15.959Z,1.10
2023-01-23T09:19:18.265Z,1.41
2023-01-23T09:20:20.805Z,1.42
2023-01-23T09:21:23.130Z,1.40
2023-01-23T09:22:25.364Z,1.71
2023-01-23T09:23:27.776Z,1.28
2023-01-23T09:24:29.997Z,1.53
2023-01-23T09:25:32.417Z,1.73
2023-01-23T09:26:35.012Z,1.22
2023-01-23T09:27:37.579Z,1.53
2023-01-23T09:28:39.866Z,1.58
2023-01-23T09:29:42.403Z,1.79
2023-01-23T09:30:44.797Z,1.76
2023-01-23T09:31:47.363Z,1.64
2023-01-23T09:32:49.878Z,1.34
2023-01-23T09:33:52.063Z,1.49
2023-01-23T09:34:54.304Z,1.86
2023-01-23T09:35:56.600Z,1.75
2023-01-23T09:36:59.164Z,1.48
2023-01-23T09:38:01.749Z,1.61
2023-01-23T09:39:03.939Z,1.53
2023-01-23T09:40:06.229Z,1.56
2023-01-23T09:41:08.614Z,1.75
2023-01-23T09:42:10.901Z,1.73
2023-01-23T09:43:13.368Z,1.62
2023-01-23T09:44:15.698Z,2.04
2023-01-23T09:45:18.260Z,1.87
2023-01-23T09:46:20.726Z,2.04
2023-01-23T09:47:23.218Z,1.53
2023-01-23T09:48:25.645Z,1.98
2023-01-23T09:49:28.159Z,1.75
2023-01-23T09:50:30.550Z,1.92
2023-01-23T09:51:33.154Z,2.09
2023-01-23T09:52:35.354Z,1.80
2023-01-23T09:53:37.793Z,1.87
2023-01-23T09:54:40.026Z,2.04
2023-01-23T09:55:42.245Z,1.99
2023-01-23T09:56:44.564Z,2.04
2023-01-23T09:57:46.839Z,1.88
2023-01-23T09:58:49.334Z,1.90
2023-01-23T10:00:00.667Z,1.68
2023-01-23T10:00:56.092Z,1.76
2023-01-23T10:01:58.680Z,1.84
2023-01-23T10:03:01.294Z,1.74
2023-01-23T10:04:03.840Z,1.88
2023-01-23T10:05:09.384Z,1.84
2023-01-23T10:06:11.874Z,2.16
2023-01-23T10:07:14.397Z,2.08
2023-01-23T10:08:16.683Z,1.92
2023-01-23T10:09:18.990Z,1.67
2023-01-23T10:10:21.507Z,1.56
2023-01-23T10:11:23.955Z,1.84
2023-01-23T10:12:26.411Z,2.07
2023-01-23T10:13:28.679Z,1.79
2023-01-23T10:14:30.955Z,2.03
2023-01-23T10:15:33.158Z,2.44
2023-01-23T10:16:49.477Z,1.98
2023-01-23T10:17:39.420Z,1.94
2023-01-23T10:18:41.837Z,1.92
2023-01-23T10:19:44.369Z,1.94
2023-01-23T10:20:46.618Z,2.20
2023-01-23T10:21:48.876Z,1.76
2023-01-23T10:22:51.382Z,2.17
2023-01-23T10:23:53.655Z,2.43
2023-01-23T10:24:56.138Z,2.08
2023-01-23T10:25:58.390Z,1.89
2023-01-23T10:27:00.692Z,2.17
2023-01-23T10:28:03.163Z,1.79
2023-01-23T10:29:05.413Z,2.19
2023-01-23T10:30:07.913Z,1.95
2023-01-23T10:31:10.462Z,1.99
2023-01-23T10:32:13.090Z,1.94
2023-01-23T10:33:15.658Z,1.92
2023-01-23T10:34:18.277Z,2.18
2023-01-23T10:35:20.860Z,2.05
2023-01-23T10:36:24.651Z,2.39
2023-01-23T10:37:27.215Z,1.95
2023-01-23T10:38:29.731Z,1.81
2023-01-23T10:39:31.966Z,2.08
2023-01-23T10:40:34.164Z,1.74
2023-01-23T10:41:36.356Z,1.93
2023-01-23T10:42:38.915Z,2.03
2023-01-23T10:43:41.410Z,2.18
2023-01-23T10:44:43.661Z,1.98
2023-01-23T10:45:46.003Z,1.91
2023-01-23T10:46:48.221Z,1.73
2023-01-23T10:47:55.227Z,2.00
2023-01-23T10:48:54.737Z,2.24
2023-01-23T10:49:57.008Z,2.03
2023-01-23T10:50:59.314Z,2.02
2023-01-23T10:52:01.578Z,1.84
2023-01-23T10:53:03.784Z,2.17
2023-01-23T10:54:06.751Z,1.92
2023-01-23T10:55:09.453Z,2.18
2023-01-23T10:56:11.797Z,2.09
2023-01-23T10:57:14.029Z,2.06
2023-01-23T10:58:16.214Z,2.06
2023-01-23T10:59:18.630Z,1.97
2023-01-23T11:00:20.833Z,1.94
2023-01-23T11:01:23.140Z,1.97
2023-01-23T11:02:25.631Z,2.20
2023-01-23T11:03:27.889Z,2.10
2023-01-23T11:04:30.158Z,1.99
2023-01-23T11:05:37.609Z,1.99
2023-01-23T11:06:36.296Z,1.97
2023-01-23T11:07:38.579Z,2.03
2023-01-23T11:08:40.993Z,1.66
2023-01-23T11:09:43.252Z,1.89
2023-01-23T11:10:45.512Z,2.02
2023-01-23T11:11:47.688Z,1.89
2023-01-23T11:12:50.102Z,2.02
2023-01-23T11:13:52.371Z,2.16
2023-01-23T11:14:54.896Z,1.99
2023-01-23T11:15:57.174Z,2.13
2023-01-23T11:16:59.611Z,2.15
2023-01-23T11:18:01.886Z,2.16
2023-01-23T11:19:04.340Z,2.02
2023-01-23T11:20:06.873Z,1.98
2023-01-23T11:21:09.224Z,2.08
2023-01-23T11:22:11.499Z,1.93
2023-01-23T11:23:13.937Z,2.05
2023-01-23T11:24:17.671Z,1.82
2023-01-23T11:25:20.795Z,2.05
2023-01-23T11:26:23.238Z,2.08
2023-01-23T11:27:25.422Z,2.13
2023-01-23T11:28:27.644Z,2.17
2023-01-23T11:29:29.833Z,2.20
2023-01-23T11:30:32.355Z,1.92
2023-01-23T11:31:34.821Z,2.15
2023-01-23T11:32:37.127Z,2.18
2023-01-23T11:33:39.552Z,2.06
2023-01-23T11:34:41.773Z,2.26
2023-01-23T11:35:44.408Z,2.14
2023-01-23T11:36:46.624Z,2.32
2023-01-23T11:37:48.848Z,2.02
2023-01-23T11:38:52.753Z,2.10
2023-01-23T11:39:55.000Z,2.14
2023-01-23T11:40:57.239Z,2.33
2023-01-23T11:41:59.509Z,2.55
2023-01-23T11:43:01.731Z,2.08
2023-01-23T11:44:04.745Z,2.35
2023-01-23T11:45:08.048Z,2.14
2023-01-23T11:46:10.531Z,2.09
2023-01-23T11:47:12.765Z,1.92
2023-01-23T11:48:15.013Z,1.86
2023-01-23T11:49:17.225Z,2.11
2023-01-23T11:50:19.463Z,2.35
2023-01-23T11:51:21.897Z,1.73
2023-01-23T11:52:24.099Z,2.01
2023-01-23T11:53:36.748Z,1.99
2023-01-23T11:54:30.188Z,1.99
2023-01-23T11:55:34.612Z,1.76
2023-01-23T11:56:36.598Z,2.21
2023-01-23T11:57:39.086Z,1.87
2023-01-23T11:58:49.466Z,1.77
2023-01-23T11:59:45.351Z,2.02
2023-01-23T12:00:47.871Z,1.95
2023-01-23T12:02:02.417Z,2.08
2023-01-23T12:02:54.452Z,2.31
2023-01-23T12:03:56.833Z,2.17
2023-01-23T12:04:59.118Z,2.42
2023-01-23T12:06:18.795Z,1.95
2023-01-23T12:07:05.784Z,1.79
2023-01-23T12:08:08.064Z,1.80
2023-01-23T12:09:10.493Z,1.92
2023-01-23T12:10:12.929Z,2.18
2023-01-23T12:11:15.094Z,2.12
2023-01-23T12:12:17.609Z,1.93
2023-01-23T12:13:19.836Z,2.12
2023-01-23T12:14:22.283Z,2.42
2023-01-23T12:15:24.713Z,2.20
2023-01-23T12:16:27.358Z,2.29
2023-01-23T12:17:29.811Z,2.45
2023-01-23T12:18:32.337Z,2.61
2023-01-23T12:19:34.784Z,2.33
2023-01-23T12:20:37.249Z,2.47
2023-01-23T12:21:39.473Z,2.02
2023-01-23T12:22:41.892Z,2.12
2023-01-23T12:23:44.109Z,2.22
2023-01-23T12:24:46.683Z,2.11
2023-01-23T12:25:49.202Z,2.25
2023-01-23T12:26:51.684Z,2.33
2023-01-23T12:27:54.128Z,2.33
2023-01-23T12:28:56.603Z,1.88
2023-01-23T12:29:59.191Z,2.33
2023-01-23T12:31:02.996Z,1.96
2023-01-23T12:32:05.885Z,1.88
2023-01-23T12:33:08.701Z,1.97
2023-01-23T12:34:11.083Z,2.12
2023-01-23T12:35:13.523Z,2.22
2023-01-23T12:36:16.157Z,1.87
2023-01-23T12:37:29.875Z,2.16
2023-01-23T12:38:22.298Z,2.06
2023-01-23T12:39:24.611Z,2.07
2023-01-23T12:40:27.039Z,2.13
2023-01-23T12:41:29.605Z,2.07
2023-01-23T12:42:31.767Z,2.03
2023-01-23T12:43:34.274Z,2.06
2023-01-23T12:44:36.494Z,1.99
2023-01-23T12:45:38.678Z,1.82
2023-01-23T12:46:40.953Z,1.84
2023-01-23T12:47:43.195Z,1.89
2023-01-23T12:48:45.428Z,1.74
2023-01-23T12:49:47.635Z,1.79
2023-01-23T12:50:50.670Z,1.94
2023-01-23T12:51:53.217Z,1.93
2023-01-23T12:52:55.678Z,1.82
2023-01-23T12:53:58.640Z,1.94
2023-01-23T12:55:00.878Z,1.70
2023-01-23T12:56:03.319Z,1.69
2023-01-23T12:57:05.533Z,1.92
2023-01-23T12:58:09.325Z,1.82
2023-01-23T12:59:12.000Z,1.65
2023-01-23T13:00:14.695Z,1.82
2023-01-23T13:01:16.929Z,1.72
2023-01-23T13:02:19.514Z,1.82
2023-01-23T13:03:22.760Z,1.80
2023-01-23T13:04:25.152Z,2.33
2023-01-23T13:05:27.416Z,2.14
2023-01-23T13:06:29.918Z,1.68
2023-01-23T13:07:32.504Z,1.66
2023-01-23T13:08:40.331Z,1.54
2023-01-23T13:09:39.137Z,1.90
2023-01-23T13:10:41.389Z,1.80
2023-01-23T13:11:43.785Z,1.42
2023-01-23T13:12:46.010Z,1.75
2023-01-23T13:13:48.460Z,2.02
2023-01-23T13:15:12.840Z,1.79
2023-01-23T13:15:54.932Z,1.96
2023-01-23T13:16:57.200Z,1.77
2023-01-23T13:17:59.345Z,1.99
2023-01-23T13:19:01.612Z,2.19
2023-01-23T13:20:03.958Z,2.04
2023-01-23T13:21:06.453Z,1.64
2023-01-23T13:22:09.490Z,1.92
2023-01-23T13:23:12.088Z,2.24
2023-01-23T13:24:14.322Z,2.12
2023-01-23T13:25:16.763Z,2.25
2023-01-23T13:26:19.078Z,1.80
2023-01-23T13:27:21.691Z,2.08
2023-01-23T13:28:24.753Z,1.92
2023-01-23T13:29:27.759Z,2.30
2023-01-23T13:30:30.045Z,2.27
2023-01-23T13:31:32.292Z,2.40
2023-01-23T13:32:35.100Z,2.97
2023-01-23T13:33:37.312Z,3.10
2023-01-23T13:34:39.717Z,2.90
2023-01-23T13:35:41.994Z,2.65
2023-01-23T13:36:44.502Z,2.72
2023-01-23T13:37:46.675Z,2.44
2023-01-23T13:38:48.974Z,2.39
2023-01-23T13:40:01.579Z,2.45
2023-01-23T13:40:55.036Z,2.60
2023-01-23T13:41:57.271Z,2.25
2023-01-23T13:42:59.490Z,2.37
2023-01-23T13:44:01.853Z,2.23
2023-01-23T13:45:04.117Z,2.14
2023-01-23T13:46:06.439Z,2.07
2023-01-23T13:47:08.689Z,1.96
2023-01-23T13:48:10.848Z,1.99
2023-01-23T13:49:13.068Z,2.11
2023-01-23T13:50:15.504Z,2.07
2023-01-23T13:51:18.167Z,2.09
2023-01-23T13:52:20.605Z,1.81